sensor_id;sensor_type;location;lat;lon;timestamp;pressure;altitude;pressure_sealevel;temperature;humidity
75425;BME280;64007;50.632;13.700;2023-09-19T00:01:08;97378.91;;;15.01;100.00
75425;BME280;64007;50.632;13.700;2023-09-19T00:03:38;97377.59;;;14.97;100.00
75425;BME280;64007;50.632;13.700;2023-09-19T00:06:05;97373.91;;;14.98;100.00
75425;BME280;64007;50.632;13.700;2023-09-19T00:08:33;97369.88;;;15.02;100.00
75425;BME280;64007;50.632;13.700;2023-09-19T00:10:59;97366.53;;;15.00;100.00
75425;BME280;64007;50.632;13.700;2023-09-19T00:13:33;97364.53;;;15.02;100.00
75425;BME280;64007;50.632;13.700;2023-09-19T00:16:08;97356.50;;;15.02;100.00
75425;BME280;64007;50.632;13.700;2023-09-19T00:18:34;97363.69;;;15.02;100.00
75425;BME280;64007;50.632;13.700;2023-09-19T00:21:00;97361.84;;;14.94;100.00
75425;BME280;64007;50.632;13.700;2023-09-19T00:23:26;97372.22;;;14.97;100.00
75425;BME280;64007;50.632;13.700;2023-09-19T00:25:54;97359.50;;;14.99;100.00
75425;BME280;64007;50.632;13.700;2023-09-19T00:28:23;97360.19;;;15.01;100.00
75425;BME280;64007;50.632;13.700;2023-09-19T00:30:49;97359.84;;;14.96;100.00
75425;BME280;64007;50.632;13.700;2023-09-19T00:33:20;97362.69;;;14.95;100.00
75425;BME280;64007;50.632;13.700;2023-09-19T00:35:50;97365.53;;;14.93;100.00
75425;BME280;64007;50.632;13.700;2023-09-19T00:38:16;97365.88;;;14.90;100.00
75425;BME280;64007;50.632;13.700;2023-09-19T00:40:46;97363.88;;;14.92;100.00
75425;BME280;64007;50.632;13.700;2023-09-19T00:43:12;97360.19;;;14.93;100.00
75425;BME280;64007;50.632;13.700;2023-09-19T00:45:39;97352.66;;;14.89;100.00
75425;BME280;64007;50.632;13.700;2023-09-19T00:48:08;97361.53;;;14.89;100.00
75425;BME280;64007;50.632;13.700;2023-09-19T00:50:35;97362.53;;;14.88;100.00
75425;BME280;64007;50.632;13.700;2023-09-19T00:53:01;97362.88;;;14.85;100.00
75425;BME280;64007;50.632;13.700;2023-09-19T00:55:33;97359.69;;;14.90;100.00
75425;BME280;64007;50.632;13.700;2023-09-19T00:58:00;97361.19;;;14.92;100.00
75425;BME280;64007;50.632;13.700;2023-09-19T01:00:26;97359.69;;;14.90;100.00
75425;BME280;64007;50.632;13.700;2023-09-19T01:02:52;97356.50;;;14.94;100.00
75425;BME280;64007;50.632;13.700;2023-09-19T01:05:18;97362.69;;;14.95;100.00
75425;BME280;64007;50.632;13.700;2023-09-19T01:07:44;97359.69;;;14.98;100.00
75425;BME280;64007;50.632;13.700;2023-09-19T01:10:16;97368.56;;;14.98;100.00
75425;BME280;64007;50.632;13.700;2023-09-19T01:15:51;97345.63;;;14.88;100.00
75425;BME280;64007;50.632;13.700;2023-09-19T01:23:20;97356.00;;;14.91;100.00
75425;BME280;64007;50.632;13.700;2023-09-19T01:26:05;97358.53;;;14.92;100.00
75425;BME280;64007;50.632;13.700;2023-09-19T01:28:32;97360.53;;;14.90;100.00
75425;BME280;64007;50.632;13.700;2023-09-19T01:31:06;97360.84;;;14.87;100.00
75425;BME280;64007;50.632;13.700;2023-09-19T01:33:54;97367.56;;;14.91;100.00
75425;BME280;64007;50.632;13.700;2023-09-19T01:36:23;97359.84;;;14.88;100.00
75425;BME280;64007;50.632;13.700;2023-09-19T01:38:50;97364.22;;;14.89;100.00
75425;BME280;64007;50.632;13.700;2023-09-19T01:41:22;97366.38;;;14.94;100.00
75425;BME280;64007;50.632;13.700;2023-09-19T01:43:51;97366.72;;;14.91;100.00
75425;BME280;64007;50.632;13.700;2023-09-19T01:46:21;97365.03;;;14.90;100.00
75425;BME280;64007;50.632;13.700;2023-09-19T01:54:21;97366.00;;;14.81;100.00
75425;BME280;64007;50.632;13.700;2023-09-19T01:56:57;97364.34;;;14.80;100.00
75425;BME280;64007;50.632;13.700;2023-09-19T01:59:34;97372.25;;;14.81;100.00
75425;BME280;64007;50.632;13.700;2023-09-19T02:02:01;97381.44;;;14.87;100.00
75425;BME280;64007;50.632;13.700;2023-09-19T02:04:28;97378.59;;;14.88;100.00
75425;BME280;64007;50.632;13.700;2023-09-19T02:06:54;97384.94;;;14.95;100.00
75425;BME280;64007;50.632;13.700;2023-09-19T02:09:21;97380.59;;;14.94;100.00
75425;BME280;64007;50.632;13.700;2023-09-19T02:11:46;97392.47;;;15.00;100.00
75425;BME280;64007;50.632;13.700;2023-09-19T02:14:12;97385.78;;;15.04;100.00
75425;BME280;64007;50.632;13.700;2023-09-19T02:16:39;97386.78;;;15.03;100.00
75425;BME280;64007;50.632;13.700;2023-09-19T02:19:05;97392.47;;;15.08;100.00
75425;BME280;64007;50.632;13.700;2023-09-19T02:21:31;97390.28;;;15.12;100.00
75425;BME280;64007;50.632;13.700;2023-09-19T02:23:57;97397.31;;;15.13;100.00
75425;BME280;64007;50.632;13.700;2023-09-19T02:26:23;97392.47;;;15.16;100.00
75425;BME280;64007;50.632;13.700;2023-09-19T02:28:49;97388.31;;;15.22;100.00
75425;BME280;64007;50.632;13.700;2023-09-19T02:31:15;97392.31;;;15.26;100.00
75425;BME280;64007;50.632;13.700;2023-09-19T02:33:42;97389.13;;;15.30;100.00
75425;BME280;64007;50.632;13.700;2023-09-19T02:36:08;97394.00;;;15.27;100.00
75425;BME280;64007;50.632;13.700;2023-09-19T02:38:34;97394.66;;;15.29;100.00
75425;BME280;64007;50.632;13.700;2023-09-19T02:40:59;97401.03;;;15.28;100.00
75425;BME280;64007;50.632;13.700;2023-09-19T02:43:25;97406.03;;;15.31;100.00
75425;BME280;64007;50.632;13.700;2023-09-19T02:45:51;97404.88;;;15.33;100.00
75425;BME280;64007;50.632;13.700;2023-09-19T02:48:20;97395.31;;;15.31;100.00
75425;BME280;64007;50.632;13.700;2023-09-19T02:50:49;97387.13;;;15.32;100.00
75425;BME280;64007;50.632;13.700;2023-09-19T02:53:15;97391.97;;;15.37;100.00
75425;BME280;64007;50.632;13.700;2023-09-19T02:55:41;97385.09;;;15.34;100.00
75425;BME280;64007;50.632;13.700;2023-09-19T02:58:08;97390.47;;;15.34;100.00
75425;BME280;64007;50.632;13.700;2023-09-19T03:00:34;97398.34;;;15.36;100.00
75425;BME280;64007;50.632;13.700;2023-09-19T03:03:01;97402.00;;;15.35;100.00
75425;BME280;64007;50.632;13.700;2023-09-19T03:05:27;97402.34;;;15.32;100.00
75425;BME280;64007;50.632;13.700;2023-09-19T03:07:56;97410.56;;;15.30;100.00
75425;BME280;64007;50.632;13.700;2023-09-19T03:10:23;97412.06;;;15.25;100.00
75425;BME280;64007;50.632;13.700;2023-09-19T03:12:50;97414.75;;;15.25;100.00
75425;BME280;64007;50.632;13.700;2023-09-19T03:15:15;97404.84;;;15.17;100.00
75425;BME280;64007;50.632;13.700;2023-09-19T03:17:45;97403.19;;;15.16;100.00
75425;BME280;64007;50.632;13.700;2023-09-19T03:20:13;97406.69;;;15.09;100.00
75425;BME280;64007;50.632;13.700;2023-09-19T03:22:39;97397.16;;;15.06;100.00
75425;BME280;64007;50.632;13.700;2023-09-19T03:25:07;97398.00;;;14.98;100.00
75425;BME280;64007;50.632;13.700;2023-09-19T03:27:36;97405.19;;;14.98;100.00
75425;BME280;64007;50.632;13.700;2023-09-19T03:30:03;97405.03;;;14.99;100.00
75425;BME280;64007;50.632;13.700;2023-09-19T03:32:33;97404.34;;;14.97;100.00
75425;BME280;64007;50.632;13.700;2023-09-19T03:35:00;97399.34;;;14.94;100.00
75425;BME280;64007;50.632;13.700;2023-09-19T03:37:25;97397.16;;;14.98;100.00
75425;BME280;64007;50.632;13.700;2023-09-19T03:39:51;97401.69;;;14.89;100.00
75425;BME280;64007;50.632;13.700;2023-09-19T03:42:17;97390.28;;;14.79;100.00
75425;BME280;64007;50.632;13.700;2023-09-19T03:44:43;97390.81;;;14.83;100.00
75425;BME280;64007;50.632;13.700;2023-09-19T03:47:08;97388.59;;;14.78;100.00
75425;BME280;64007;50.632;13.700;2023-09-19T03:49:34;97382.91;;;14.73;100.00
75425;BME280;64007;50.632;13.700;2023-09-19T03:52:00;97389.44;;;14.70;100.00
75425;BME280;64007;50.632;13.700;2023-09-19T03:54:26;97393.09;;;14.69;100.00
75425;BME280;64007;50.632;13.700;2023-09-19T03:56:52;97391.94;;;14.72;100.00
75425;BME280;64007;50.632;13.700;2023-09-19T03:59:17;97378.56;;;14.72;100.00
75425;BME280;64007;50.632;13.700;2023-09-19T04:01:43;97375.53;;;14.67;100.00
75425;BME280;64007;50.632;13.700;2023-09-19T04:04:09;97388.94;;;14.67;100.00
75425;BME280;64007;50.632;13.700;2023-09-19T04:06:35;97391.94;;;14.64;100.00
75425;BME280;64007;50.632;13.700;2023-09-19T04:09:02;97406.66;;;14.60;100.00
75425;BME280;64007;50.632;13.700;2023-09-19T04:11:29;97397.63;;;14.61;100.00
75425;BME280;64007;50.632;13.700;2023-09-19T04:13:56;97413.66;;;14.61;100.00
75425;BME280;64007;50.632;13.700;2023-09-19T04:16:22;97410.47;;;14.57;100.00
75425;BME280;64007;50.632;13.700;2023-09-19T04:18:48;97412.00;;;14.60;100.00
75425;BME280;64007;50.632;13.700;2023-09-19T04:21:13;97410.31;;;14.59;100.00
75425;BME280;64007;50.632;13.700;2023-09-19T04:23:39;97411.31;;;14.58;100.00
75425;BME280;64007;50.632;13.700;2023-09-19T04:26:05;97421.34;;;14.56;100.00
75425;BME280;64007;50.632;13.700;2023-09-19T04:28:31;97426.69;;;14.56;100.00
75425;BME280;64007;50.632;13.700;2023-09-19T04:31:00;97426.53;;;14.57;100.00
75425;BME280;64007;50.632;13.700;2023-09-19T04:33:26;97427.03;;;14.53;100.00
75425;BME280;64007;50.632;13.700;2023-09-19T04:35:55;97436.06;;;14.52;100.00
75425;BME280;64007;50.632;13.700;2023-09-19T04:38:22;97443.91;;;14.53;100.00
75425;BME280;64007;50.632;13.700;2023-09-19T04:40:48;97426.53;;;14.49;100.00
75425;BME280;64007;50.632;13.700;2023-09-19T04:43:14;97436.38;;;14.49;100.00
75425;BME280;64007;50.632;13.700;2023-09-19T04:45:40;97437.38;;;14.48;100.00
75425;BME280;64007;50.632;13.700;2023-09-19T04:48:06;97436.22;;;14.50;100.00
75425;BME280;64007;50.632;13.700;2023-09-19T04:50:34;97428.19;;;14.50;100.00
75425;BME280;64007;50.632;13.700;2023-09-19T04:53:00;97436.72;;;14.54;100.00
75425;BME280;64007;50.632;13.700;2023-09-19T04:55:26;97449.63;;;14.58;100.00
75425;BME280;64007;50.632;13.700;2023-09-19T04:57:52;97449.44;;;14.60;100.00
75425;BME280;64007;50.632;13.700;2023-09-19T05:00:20;97447.44;;;14.54;100.00
75425;BME280;64007;50.632;13.700;2023-09-19T05:02:51;97449.78;;;14.57;100.00
75425;BME280;64007;50.632;13.700;2023-09-19T05:05:21;97446.75;;;14.52;100.00
75425;BME280;64007;50.632;13.700;2023-09-19T05:07:48;97444.75;;;14.54;100.00
75425;BME280;64007;50.632;13.700;2023-09-19T05:10:14;97448.78;;;14.58;100.00
75425;BME280;64007;50.632;13.700;2023-09-19T05:12:41;97452.81;;;14.62;100.00
75425;BME280;64007;50.632;13.700;2023-09-19T05:15:07;97452.81;;;14.62;100.00
75425;BME280;64007;50.632;13.700;2023-09-19T05:17:34;97460.53;;;14.73;100.00
75425;BME280;64007;50.632;13.700;2023-09-19T05:20:02;97457.47;;;14.60;100.00
75425;BME280;64007;50.632;13.700;2023-09-19T05:22:41;97466.84;;;14.64;100.00
75425;BME280;64007;50.632;13.700;2023-09-19T05:25:09;97475.22;;;14.69;100.00
75425;BME280;64007;50.632;13.700;2023-09-19T05:27:35;97466.53;;;14.67;100.00
75425;BME280;64007;50.632;13.700;2023-09-19T05:30:01;97474.22;;;14.70;100.00
75425;BME280;64007;50.632;13.700;2023-09-19T05:32:27;97476.56;;;14.73;100.00
75425;BME280;64007;50.632;13.700;2023-09-19T05:34:52;97472.91;;;14.74;100.00
75425;BME280;64007;50.632;13.700;2023-09-19T05:37:19;97477.91;;;14.77;100.00
75425;BME280;64007;50.632;13.700;2023-09-19T05:39:45;97494.69;;;14.87;100.00
75425;BME280;64007;50.632;13.700;2023-09-19T05:42:11;97496.03;;;14.91;100.00
75425;BME280;64007;50.632;13.700;2023-09-19T05:44:36;97498.38;;;14.94;100.00
75425;BME280;64007;50.632;13.700;2023-09-19T05:47:03;97502.41;;;14.98;100.00
75425;BME280;64007;50.632;13.700;2023-09-19T05:49:29;97495.06;;;15.00;100.00
75425;BME280;64007;50.632;13.700;2023-09-19T05:51:55;97505.75;;;15.00;100.00
75425;BME280;64007;50.632;13.700;2023-09-19T05:54:21;97505.28;;;15.05;100.00
75425;BME280;64007;50.632;13.700;2023-09-19T05:56:47;97504.44;;;15.13;100.00
75425;BME280;64007;50.632;13.700;2023-09-19T05:59:14;97495.22;;;15.07;100.00
75425;BME280;64007;50.632;13.700;2023-09-19T06:01:43;97498.09;;;15.14;100.00
75425;BME280;64007;50.632;13.700;2023-09-19T06:04:09;97496.25;;;15.14;100.00
75425;BME280;64007;50.632;13.700;2023-09-19T06:06:35;97510.81;;;15.20;100.00
75425;BME280;64007;50.632;13.700;2023-09-19T06:09:04;97506.44;;;15.19;100.00
75425;BME280;64007;50.632;13.700;2023-09-19T06:11:37;97498.41;;;15.19;100.00
75425;BME280;64007;50.632;13.700;2023-09-19T06:14:03;97498.75;;;15.08;100.00
75425;BME280;64007;50.632;13.700;2023-09-19T06:16:29;97519.66;;;15.12;100.00
75425;BME280;64007;50.632;13.700;2023-09-19T06:18:55;97518.16;;;15.18;100.00
75425;BME280;64007;50.632;13.700;2023-09-19T06:21:22;97525.56;;;15.24;100.00
75425;BME280;64007;50.632;13.700;2023-09-19T06:23:48;97524.91;;;15.22;100.00
75425;BME280;64007;50.632;13.700;2023-09-19T06:26:14;97537.28;;;15.31;100.00
75425;BME280;64007;50.632;13.700;2023-09-19T06:28:40;97546.69;;;15.35;100.00
75425;BME280;64007;50.632;13.700;2023-09-19T06:31:06;97544.66;;;15.37;100.00
75425;BME280;64007;50.632;13.700;2023-09-19T06:33:38;97549.34;;;15.43;100.00
75425;BME280;64007;50.632;13.700;2023-09-19T06:36:07;97540.31;;;15.44;100.00
75425;BME280;64007;50.632;13.700;2023-09-19T06:38:33;97547.34;;;15.45;100.00
75425;BME280;64007;50.632;13.700;2023-09-19T06:41:03;97551.38;;;15.49;100.00
75425;BME280;64007;50.632;13.700;2023-09-19T06:43:34;97553.72;;;15.52;100.00
75425;BME280;64007;50.632;13.700;2023-09-19T06:46:01;97556.44;;;15.60;100.00
75425;BME280;64007;50.632;13.700;2023-09-19T06:48:27;97556.97;;;15.72;100.00
75425;BME280;64007;50.632;13.700;2023-09-19T06:50:56;97561.97;;;15.83;100.00
75425;BME280;64007;50.632;13.700;2023-09-19T06:53:24;97571.00;;;15.90;100.00
75425;BME280;64007;50.632;13.700;2023-09-19T06:55:51;97571.50;;;15.94;100.00
75425;BME280;64007;50.632;13.700;2023-09-19T06:58:16;97582.25;;;16.02;100.00
75425;BME280;64007;50.632;13.700;2023-09-19T07:00:42;97589.28;;;16.11;100.00
75425;BME280;64007;50.632;13.700;2023-09-19T07:03:08;97582.22;;;16.18;100.00
75425;BME280;64007;50.632;13.700;2023-09-19T07:05:38;97591.09;;;16.27;100.00
75425;BME280;64007;50.632;13.700;2023-09-19T07:08:06;97600.16;;;16.42;100.00
75425;BME280;64007;50.632;13.700;2023-09-19T07:10:32;97605.66;;;16.49;100.00
75425;BME280;64007;50.632;13.700;2023-09-19T07:12:59;97599.75;;;16.61;100.00
75425;BME280;64007;50.632;13.700;2023-09-19T07:15:29;97602.94;;;16.73;100.00
75425;BME280;64007;50.632;13.700;2023-09-19T07:17:56;97607.28;;;16.74;100.00
75425;BME280;64007;50.632;13.700;2023-09-19T07:20:23;97607.13;;;16.76;100.00
75425;BME280;64007;50.632;13.700;2023-09-19T07:22:54;97620.53;;;16.84;100.00
75425;BME280;64007;50.632;13.700;2023-09-19T07:25:26;97618.66;;;16.92;100.00
75425;BME280;64007;50.632;13.700;2023-09-19T07:27:51;97616.59;;;17.03;100.00
75425;BME280;64007;50.632;13.700;2023-09-19T07:30:17;97618.38;;;17.18;100.00
75425;BME280;64007;50.632;13.700;2023-09-19T07:32:43;97620.63;;;17.38;100.00
75425;BME280;64007;50.632;13.700;2023-09-19T07:35:09;97622.06;;;17.48;100.00
75425;BME280;64007;50.632;13.700;2023-09-19T07:37:34;97631.47;;;17.52;100.00
75425;BME280;64007;50.632;13.700;2023-09-19T07:40:02;97628.38;;;17.64;100.00
75425;BME280;64007;50.632;13.700;2023-09-19T07:42:35;97624.97;;;17.78;100.00
75425;BME280;64007;50.632;13.700;2023-09-19T07:45:02;97633.78;;;17.87;100.00
75425;BME280;64007;50.632;13.700;2023-09-19T07:47:28;97627.22;;;17.89;100.00
75425;BME280;64007;50.632;13.700;2023-09-19T07:49:56;97635.75;;;17.93;100.00
75425;BME280;64007;50.632;13.700;2023-09-19T07:52:21;97632.13;;;18.08;100.00
75425;BME280;64007;50.632;13.700;2023-09-19T07:54:48;97638.69;;;18.29;100.00
75425;BME280;64007;50.632;13.700;2023-09-19T07:57:15;97630.53;;;18.37;100.00
75425;BME280;64007;50.632;13.700;2023-09-19T07:59:41;97644.59;;;18.47;100.00
75425;BME280;64007;50.632;13.700;2023-09-19T08:02:08;97641.25;;;18.45;100.00
75425;BME280;64007;50.632;13.700;2023-09-19T08:04:35;97634.84;;;18.46;100.00
75425;BME280;64007;50.632;13.700;2023-09-19T08:07:01;97642.47;;;18.57;100.00
75425;BME280;64007;50.632;13.700;2023-09-19T08:09:29;97646.22;;;18.71;100.00
75425;BME280;64007;50.632;13.700;2023-09-19T08:11:59;97651.25;;;18.89;100.00
75425;BME280;64007;50.632;13.700;2023-09-19T08:14:28;97646.97;;;19.09;100.00
75425;BME280;64007;50.632;13.700;2023-09-19T08:16:58;97654.56;;;19.20;100.00
75425;BME280;64007;50.632;13.700;2023-09-19T08:19:24;97655.25;;;18.93;100.00
75425;BME280;64007;50.632;13.700;2023-09-19T08:21:57;97663.13;;;18.79;100.00
75425;BME280;64007;50.632;13.700;2023-09-19T08:24:28;97657.03;;;18.86;100.00
75425;BME280;64007;50.632;13.700;2023-09-19T08:26:57;97660.53;;;19.01;100.00
75425;BME280;64007;50.632;13.700;2023-09-19T08:29:24;97651.22;;;19.18;100.00
75425;BME280;64007;50.632;13.700;2023-09-19T08:31:54;97653.94;;;19.33;100.00
75425;BME280;64007;50.632;13.700;2023-09-19T08:34:22;97655.16;;;19.30;100.00
75425;BME280;64007;50.632;13.700;2023-09-19T08:36:52;97645.13;;;19.24;100.00
75425;BME280;64007;50.632;13.700;2023-09-19T08:39:25;97652.06;;;19.19;100.00
75425;BME280;64007;50.632;13.700;2023-09-19T08:42:00;97652.06;;;19.33;100.00
75425;BME280;64007;50.632;13.700;2023-09-19T08:44:28;97652.16;;;19.40;100.00
75425;BME280;64007;50.632;13.700;2023-09-19T08:47:02;97646.75;;;19.55;100.00
75425;BME280;64007;50.632;13.700;2023-09-19T08:52:07;97650.16;;;19.78;100.00
75425;BME280;64007;50.632;13.700;2023-09-19T08:54:38;97649.13;;;19.79;100.00
75425;BME280;64007;50.632;13.700;2023-09-19T08:57:09;97655.81;;;19.83;100.00
75425;BME280;64007;50.632;13.700;2023-09-19T08:59:39;97659.69;;;20.17;100.00
75425;BME280;64007;50.632;13.700;2023-09-19T09:02:11;97665.84;;;20.32;100.00
75425;BME280;64007;50.632;13.700;2023-09-19T09:04:40;97656.09;;;20.10;100.00
75425;BME280;64007;50.632;13.700;2023-09-19T09:07:11;97648.81;;;19.89;100.00
75425;BME280;64007;50.632;13.700;2023-09-19T09:09:39;97652.47;;;19.81;100.00
75425;BME280;64007;50.632;13.700;2023-09-19T09:12:14;97656.06;;;19.88;100.00
75425;BME280;64007;50.632;13.700;2023-09-19T09:14:45;97661.31;;;19.96;100.00
75425;BME280;64007;50.632;13.700;2023-09-19T09:17:11;97672.50;;;19.93;100.00
75425;BME280;64007;50.632;13.700;2023-09-19T09:19:37;97661.13;;;19.77;100.00
75425;BME280;64007;50.632;13.700;2023-09-19T09:22:10;97664.88;;;19.61;89.81
75425;BME280;64007;50.632;13.700;2023-09-19T09:24:37;97658.75;;;19.37;95.31
75425;BME280;64007;50.632;13.700;2023-09-19T09:27:06;97658.75;;;19.37;82.62
75425;BME280;64007;50.632;13.700;2023-09-19T09:29:49;97660.28;;;19.25;85.51
75425;BME280;64007;50.632;13.700;2023-09-19T09:32:26;97654.03;;;19.10;74.36
75425;BME280;64007;50.632;13.700;2023-09-19T09:34:56;97658.88;;;19.29;81.88
75425;BME280;64007;50.632;13.700;2023-09-19T09:37:23;97651.66;;;19.51;80.26
75425;BME280;64007;50.632;13.700;2023-09-19T09:39:57;97644.03;;;19.69;68.48
75425;BME280;64007;50.632;13.700;2023-09-19T09:42:33;97643.41;;;19.89;66.66
75425;BME280;64007;50.632;13.700;2023-09-19T09:47:47;97648.78;;;20.31;68.04
75425;BME280;64007;50.632;13.700;2023-09-19T09:50:30;97657.47;;;20.27;66.61
75425;BME280;64007;50.632;13.700;2023-09-19T09:53:29;97654.28;;;20.17;64.51
75425;BME280;64007;50.632;13.700;2023-09-19T09:56:07;97663.94;;;20.05;63.96
75425;BME280;64007;50.632;13.700;2023-09-19T09:58:49;97666.34;;;19.99;68.99
75425;BME280;64007;50.632;13.700;2023-09-19T10:01:15;97674.56;;;19.91;67.99
75425;BME280;64007;50.632;13.700;2023-09-19T10:03:42;97679.69;;;19.86;64.01
75425;BME280;64007;50.632;13.700;2023-09-19T10:06:17;97674.03;;;19.81;67.54
75425;BME280;64007;50.632;13.700;2023-09-19T10:11:48;97674.13;;;20.30;60.77
75425;BME280;64007;50.632;13.700;2023-09-19T10:14:25;97678.97;;;20.56;61.96
75425;BME280;64007;50.632;13.700;2023-09-19T10:16:58;97675.28;;;20.64;59.11
75425;BME280;64007;50.632;13.700;2023-09-19T10:22:04;97672.88;;;21.04;59.14
75425;BME280;64007;50.632;13.700;2023-09-19T10:24:33;97669.50;;;20.95;56.89
75425;BME280;64007;50.632;13.700;2023-09-19T10:27:02;97677.88;;;20.79;59.77
75425;BME280;64007;50.632;13.700;2023-09-19T10:29:32;97681.97;;;20.96;63.69
75425;BME280;64007;50.632;13.700;2023-09-19T10:32:03;97680.94;;;20.97;57.54
75425;BME280;64007;50.632;13.700;2023-09-19T10:34:34;97691.66;;;20.84;55.62
75425;BME280;64007;50.632;13.700;2023-09-19T10:37:02;97687.31;;;20.61;54.44
75425;BME280;64007;50.632;13.700;2023-09-19T10:39:35;97690.66;;;20.63;54.51
75425;BME280;64007;50.632;13.700;2023-09-19T10:42:06;97689.78;;;20.56;55.56
75425;BME280;64007;50.632;13.700;2023-09-19T10:44:37;97697.19;;;20.48;54.46
75425;BME280;64007;50.632;13.700;2023-09-19T10:47:10;97688.00;;;20.42;53.21
75425;BME280;64007;50.632;13.700;2023-09-19T10:49:43;97686.44;;;20.54;53.85
75425;BME280;64007;50.632;13.700;2023-09-19T10:52:14;97682.91;;;20.39;55.68
75425;BME280;64007;50.632;13.700;2023-09-19T10:54:45;97692.06;;;20.38;54.58
75425;BME280;64007;50.632;13.700;2023-09-19T10:57:19;97693.69;;;20.54;53.00
75425;BME280;64007;50.632;13.700;2023-09-19T11:00:01;97682.00;;;20.75;52.39
75425;BME280;64007;50.632;13.700;2023-09-19T11:02:28;97688.81;;;20.92;50.58
75425;BME280;64007;50.632;13.700;2023-09-19T11:04:54;97694.28;;;21.05;53.17
75425;BME280;64007;50.632;13.700;2023-09-19T11:07:58;97691.66;;;20.84;53.01
75425;BME280;64007;50.632;13.700;2023-09-19T11:10:49;97693.75;;;20.60;50.52
75425;BME280;64007;50.632;13.700;2023-09-19T11:13:26;97682.88;;;20.32;51.74
75425;BME280;64007;50.632;13.700;2023-09-19T11:26:43;97695.72;;;21.01;50.44
75425;BME280;64007;50.632;13.700;2023-09-19T11:29:29;97693.63;;;21.24;49.26
75425;BME280;64007;50.632;13.700;2023-09-19T11:31:56;97686.22;;;21.40;49.66
75425;BME280;64007;50.632;13.700;2023-09-19T11:34:37;97693.63;;;21.24;48.03
75425;BME280;64007;50.632;13.700;2023-09-19T11:39:37;97669.34;;;21.38;48.50
75425;BME280;64007;50.632;13.700;2023-09-19T11:45:06;97666.50;;;22.07;48.51
75425;BME280;64007;50.632;13.700;2023-09-19T11:47:33;97680.91;;;22.40;46.58
75425;BME280;64007;50.632;13.700;2023-09-19T11:50:01;97667.59;;;22.59;47.45
75425;BME280;64007;50.632;13.700;2023-09-19T11:52:28;97666.53;;;22.79;47.07
75425;BME280;64007;50.632;13.700;2023-09-19T11:55:00;97665.53;;;22.87;46.56
75425;BME280;64007;50.632;13.700;2023-09-19T11:57:28;97676.56;;;22.99;47.14
75425;BME280;64007;50.632;13.700;2023-09-19T11:59:55;97671.53;;;22.76;44.54
75425;BME280;64007;50.632;13.700;2023-09-19T12:02:39;97670.75;;;22.82;44.38
75425;BME280;64007;50.632;13.700;2023-09-19T12:05:06;97694.91;;;22.64;41.68
75425;BME280;64007;50.632;13.700;2023-09-19T12:07:42;97687.41;;;22.46;41.52
75425;BME280;64007;50.632;13.700;2023-09-19T12:10:11;97686.09;;;22.09;41.42
75425;BME280;64007;50.632;13.700;2023-09-19T12:12:39;97672.78;;;22.20;41.69
75425;BME280;64007;50.632;13.700;2023-09-19T12:15:07;97669.03;;;22.35;42.66
75425;BME280;64007;50.632;13.700;2023-09-19T12:17:37;97680.53;;;22.50;43.21
75425;BME280;64007;50.632;13.700;2023-09-19T12:20:05;97684.91;;;22.58;42.92
75425;BME280;64007;50.632;13.700;2023-09-19T12:22:49;97691.53;;;22.35;42.95
75425;BME280;64007;50.632;13.700;2023-09-19T12:25:15;97684.06;;;22.44;43.89
75425;BME280;64007;50.632;13.700;2023-09-19T12:27:44;97681.19;;;22.85;43.55
75425;BME280;64007;50.632;13.700;2023-09-19T12:30:13;97679.44;;;23.24;42.81
75425;BME280;64007;50.632;13.700;2023-09-19T12:32:43;97681.63;;;23.53;42.37
75425;BME280;64007;50.632;13.700;2023-09-19T12:35:10;97686.34;;;23.26;40.99
75425;BME280;64007;50.632;13.700;2023-09-19T12:37:51;97683.97;;;23.43;42.86
75425;BME280;64007;50.632;13.700;2023-09-19T12:40:21;97681.25;;;23.43;43.16
75425;BME280;64007;50.632;13.700;2023-09-19T12:42:50;97686.03;;;23.67;42.25
75425;BME280;64007;50.632;13.700;2023-09-19T12:45:19;97682.28;;;23.55;41.46
75425;BME280;64007;50.632;13.700;2023-09-19T12:48:24;97681.69;;;23.98;41.89
75425;BME280;64007;50.632;13.700;2023-09-19T12:51:06;97686.59;;;24.77;42.06
75425;BME280;64007;50.632;13.700;2023-09-19T12:53:38;97677.50;;;25.15;38.41
75425;BME280;64007;50.632;13.700;2023-09-19T12:56:10;97690.13;;;25.09;38.15
75425;BME280;64007;50.632;13.700;2023-09-19T12:58:55;97673.94;;;24.40;38.19
75425;BME280;64007;50.632;13.700;2023-09-19T13:01:25;97675.25;;;24.30;40.33
75425;BME280;64007;50.632;13.700;2023-09-19T13:04:18;97680.84;;;24.67;39.06
75425;BME280;64007;50.632;13.700;2023-09-19T13:06:49;97671.59;;;25.18;40.94
75425;BME280;64007;50.632;13.700;2023-09-19T13:09:16;97660.78;;;25.11;39.47
75425;BME280;64007;50.632;13.700;2023-09-19T13:11:43;97667.81;;;25.19;38.57
75425;BME280;64007;50.632;13.700;2023-09-19T13:14:26;97663.84;;;24.72;38.97
75425;BME280;64007;50.632;13.700;2023-09-19T13:17:06;97669.41;;;24.27;38.12
75425;BME280;64007;50.632;13.700;2023-09-19T13:19:48;97665.75;;;24.08;39.77
75425;BME280;64007;50.632;13.700;2023-09-19T13:25:07;97667.13;;;24.55;38.46
75425;BME280;64007;50.632;13.700;2023-09-19T13:27:38;97657.09;;;24.56;40.34
75425;BME280;64007;50.632;13.700;2023-09-19T13:30:04;97661.69;;;25.05;36.68
75425;BME280;64007;50.632;13.700;2023-09-19T13:32:32;97648.94;;;25.24;37.00
75425;BME280;64007;50.632;13.700;2023-09-19T13:34:58;97654.38;;;25.60;38.58
75425;BME280;64007;50.632;13.700;2023-09-19T13:37:24;97641.81;;;25.59;37.40